Pagrindinis puslapis
METAR-TAF:

METAR-TAF

Oro uostai :

Užhorodas, Ukraina

platuma: 48-38-05N, ilguma: 022-15-53E, Aukštis: 117 m

Dabartinis oras

Ataskaita buvo paskelbta 12 valandos ir 24 minutes, ne 16:00 UTC
Vėjas 8 kt iš Rytų/Pietryčių, svyruoja nuo Rytų/Šiaurės Rytų ir Pietų/Pietryčių
Temperatūra 15°C
Drėgmė 55%
Slėgis 1010 hPa
Matomumas 10 km arba daugiau
Su prošvaistėmis ne aukštis 5000 ft

METAR: UKLU 121600Z 11004MPS 060V150 9999 BKN050 15/06 Q1010 R10/090070 NOSIG

Laikas: 06:24 (04:24 UTC)

Prognozė

Ataskaita buvo paskelbta 14 valandos ir 22 minutes, ne 14:02 UTC
Prognozė galioja nuo 12 metu 15 UTC su 12 metu 24 UTC
Vėjas 10 kt iš Pietryčių
Matomumas 10 km arba daugiau

TAF: UKLU 121402Z 1215/1224 14005MPS 9999 NSC

Orai ataskaitas ir orų prognozės (METAR, TAF).

turimą stotys yra geltonos ir raudonos taškus žemėlapyje.

Perkelti pele per norėdami pamatyti stoties vardą.

Tada spustelėkite, norėdami matyti oro stebėjimo ir prognozės.

Norėdami pakeisti žemėlapį: spustelėkite ant žalios mygtukų su juodo kryžiaus žemyn,; žalią mygtuką su brūkšneliu, jei norite nutolinti; arba žalių rodyklių gretimoms žemėlapius.


METAR-TAF: